Time,TemperatureF,DewpointF,PressureIn,WindDirection,WindDirectionDegrees,WindSpeedMPH,WindSpeedGustMPH,Humidity,HourlyPrecipIn,Conditions,Clouds,dailyrainin,SolarRadiationWatts/m^2,SoftwareType,DateUTC
2013-03-06 00:09:00,51.3,28.0,30.29,NNW,330,1.0,-999.0,40,-99.99,,,0.00,0,weatherlink.com 1.10,2013-03-06 06:09:00,
2013-03-06 00:24:00,50.9,28.0,30.29,NNW,329,2.0,-999.0,41,-99.99,,,0.00,0,weatherlink.com 1.10,2013-03-06 06:24:00,
2013-03-06 00:39:00,50.4,27.0,30.30,NNW,348,0.0,-999.0,41,-99.99,,,0.00,0,weatherlink.com 1.10,2013-03-06 06:39:00,
2013-03-06 00:54:00,49.9,27.0,30.30,WNW,291,3.0,-999.0,42,-99.99,,,0.00,0,weatherlink.com 1.10,2013-03-06 06:54:00,
2013-03-06 01:09:00,49.6,27.0,30.30,NNE,14,3.0,-999.0,42,-99.99,,,0.00,0,weatherlink.com 1.10,2013-03-06 07:09:00,
2013-03-06 01:24:00,49.3,27.0,30.30,North,360,2.0,-999.0,43,-99.99,,,0.00,0,weatherlink.com 1.10,2013-03-06 07:24:00,
2013-03-06 01:39:00,48.8,28.0,30.30,NNW,336,1.0,-999.0,44,-99.99,,,0.00,0,weatherlink.com 1.10,2013-03-06 07:39:00,
2013-03-06 02:09:00,48.1,28.0,30.29,North,360,0.0,-999.0,46,-99.99,,,0.00,0,weatherlink.com 1.10,2013-03-06 08:09:00,
2013-03-06 02:24:00,47.5,28.0,30.30,NW,318,0.0,-999.0,47,-99.99,,,0.00,0,weatherlink.com 1.10,2013-03-06 08:24:00,
2013-03-06 02:40:00,46.9,28.0,30.30,NW,319,0.0,-999.0,49,-99.99,,,0.00,0,weatherlink.com 1.10,2013-03-06 08:40:00,
2013-03-06 02:55:00,46.3,28.0,30.30,NW,319,0.0,-999.0,50,-99.99,,,0.00,0,weatherlink.com 1.10,2013-03-06 08:55:00,
2013-03-06 03:10:00,45.8,28.0,30.30,North,10,0.0,-999.0,51,-99.99,,,0.00,0,weatherlink.com 1.10,2013-03-06 09:10:00,
2013-03-06 03:25:00,45.1,28.0,30.30,North,10,0.0,-999.0,52,-99.99,,,0.00,0,weatherlink.com 1.10,2013-03-06 09:25:00,
2013-03-06 03:40:00,44.7,28.0,30.30,North,10,0.0,-999.0,53,-99.99,,,0.00,0,weatherlink.com 1.10,2013-03-06 09:40:00,
2013-03-06 03:55:00,44.3,29.0,30.30,North,10,0.0,-999.0,55,-99.99,,,0.00,0,weatherlink.com 1.10,2013-03-06 09:55:00,
2013-03-06 04:10:00,44.1,29.0,30.31,North,10,0.0,-999.0,55,-99.99,,,0.00,0,weatherlink.com 1.10,2013-03-06 10:10:00,
2013-03-06 04:25:00,43.9,29.0,30.31,North,10,0.0,-999.0,56,-99.99,,,0.00,0,weatherlink.com 1.10,2013-03-06 10:25:00,
2013-03-06 04:40:00,43.6,29.0,30.32,North,11,0.0,-999.0,56,-99.99,,,0.00,0,weatherlink.com 1.10,2013-03-06 10:40:00,
2013-03-06 04:55:00,43.1,28.0,30.32,North,10,0.0,-999.0,55,-99.99,,,0.00,0,weatherlink.com 1.10,2013-03-06 10:55:00,
2013-03-06 05:10:00,43.3,27.0,30.32,NNE,19,0.0,-999.0,54,-99.99,,,0.00,0,weatherlink.com 1.10,2013-03-06 11:10:00,
2013-03-06 05:25:00,44.4,27.0,30.33,NNE,32,2.0,-999.0,50,-99.99,,,0.00,0,weatherlink.com 1.10,2013-03-06 11:25:00,
2013-03-06 05:40:00,45.1,26.0,30.34,NNE,26,2.0,-999.0,48,-99.99,,,0.00,0,weatherlink.com 1.10,2013-03-06 11:40:00,
2013-03-06 05:55:00,45.0,26.0,30.34,NNW,334,0.0,-999.0,48,-99.99,,,0.00,0,weatherlink.com 1.10,2013-03-06 11:55:00,
2013-03-06 06:10:00,44.9,27.0,30.34,NE,52,0.0,-999.0,49,-99.99,,,0.00,0,weatherlink.com 1.10,2013-03-06 12:10:00,
2013-03-06 06:25:00,44.5,27.0,30.35,NE,52,1.0,-999.0,50,-99.99,,,0.00,0,weatherlink.com 1.10,2013-03-06 12:25:00,
2013-03-06 06:40:00,44.1,26.0,30.36,NE,44,0.0,-999.0,50,-99.99,,,0.00,0,weatherlink.com 1.10,2013-03-06 12:40:00,
2013-03-06 06:55:00,43.8,27.0,30.36,NE,48,0.0,-999.0,51,-99.99,,,0.00,14,weatherlink.com 1.10,2013-03-06 12:55:00,
2013-03-06 07:10:00,43.7,27.0,30.36,NE,38,1.0,-999.0,52,-99.99,,,0.00,33,weatherlink.com 1.10,2013-03-06 13:10:00,
2013-03-06 07:25:00,44.2,27.0,30.37,NE,39,2.0,-999.0,52,-99.99,,,0.00,69,weatherlink.com 1.10,2013-03-06 13:25:00,
2013-03-06 07:40:00,45.3,27.0,30.38,ENE,58,0.0,-999.0,50,-99.99,,,0.00,127,weatherlink.com 1.10,2013-03-06 13:40:00,
2013-03-06 07:55:00,46.5,28.0,30.38,NE,55,3.0,-999.0,49,-99.99,,,0.00,179,weatherlink.com 1.10,2013-03-06 13:55:00,
2013-03-06 08:10:00,47.4,28.0,30.39,NE,34,1.0,-999.0,48,-99.99,,,0.00,229,weatherlink.com 1.10,2013-03-06 14:10:00,
2013-03-06 08:25:00,48.3,29.0,30.39,NNW,340,0.0,-999.0,47,-99.99,,,0.00,290,weatherlink.com 1.10,2013-03-06 14:25:00,
2013-03-06 08:40:00,49.2,28.0,30.40,NNE,19,5.0,-999.0,44,-99.99,,,0.00,334,weatherlink.com 1.10,2013-03-06 14:40:00,
2013-03-06 08:56:00,49.9,29.0,30.39,North,360,1.0,-999.0,44,-99.99,,,0.00,397,weatherlink.com 1.10,2013-03-06 14:56:00,
2013-03-06 09:11:00,51.4,28.0,30.39,East,80,1.0,-999.0,40,-99.99,,,0.00,415,weatherlink.com 1.10,2013-03-06 15:11:00,
2013-03-06 09:26:00,52.0,27.0,30.40,East,85,1.0,-999.0,38,-99.99,,,0.00,464,weatherlink.com 1.10,2013-03-06 15:26:00,
2013-03-06 09:41:00,52.5,28.0,30.40,NNE,19,2.0,-999.0,39,-99.99,,,0.00,545,weatherlink.com 1.10,2013-03-06 15:41:00,
2013-03-06 09:56:00,53.4,28.0,30.40,North,355,1.0,-999.0,38,-99.99,,,0.00,585,weatherlink.com 1.10,2013-03-06 15:56:00,
2013-03-06 10:11:00,55.1,28.0,30.40,NNE,24,0.0,-999.0,36,-99.99,,,0.00,640,weatherlink.com 1.10,2013-03-06 16:11:00,
2013-03-06 10:26:00,56.2,29.0,30.40,NNE,24,1.0,-999.0,35,-99.99,,,0.00,650,weatherlink.com 1.10,2013-03-06 16:26:00,
2013-03-06 10:41:00,56.7,30.0,30.40,East,93,1.0,-999.0,37,-99.99,,,0.00,721,weatherlink.com 1.10,2013-03-06 16:41:00,
2013-03-06 10:56:00,57.1,30.0,30.39,NE,36,0.0,-999.0,36,-99.99,,,0.00,756,weatherlink.com 1.10,2013-03-06 16:56:00,
2013-03-06 11:11:00,58.0,27.0,30.39,ESE,113,0.0,-999.0,31,-99.99,,,0.00,694,weatherlink.com 1.10,2013-03-06 17:11:00,
2013-03-06 11:26:00,57.7,29.0,30.39,WNW,298,1.0,-999.0,33,-99.99,,,0.00,432,weatherlink.com 1.10,2013-03-06 17:26:00,
2013-03-06 11:41:00,58.8,29.0,30.39,ENE,76,3.0,-999.0,32,-99.99,,,0.00,631,weatherlink.com 1.10,2013-03-06 17:41:00,
2013-03-06 11:56:00,58.5,29.0,30.37,NNW,338,0.0,-999.0,32,-99.99,,,0.00,489,weatherlink.com 1.10,2013-03-06 17:56:00,
2013-03-06 12:11:00,59.8,30.0,30.36,East,80,2.0,-999.0,32,-99.99,,,0.00,918,weatherlink.com 1.10,2013-03-06 18:11:00,
2013-03-06 12:26:00,62.0,30.0,30.35,ESE,104,0.0,-999.0,30,-99.99,,,0.00,932,weatherlink.com 1.10,2013-03-06 18:26:00,
2013-03-06 12:42:00,61.4,30.0,30.34,WNW,294,3.0,-999.0,30,-99.99,,,0.00,879,weatherlink.com 1.10,2013-03-06 18:42:00,
2013-03-06 12:56:00,61.6,30.0,30.33,NW,311,0.0,-999.0,30,-99.99,,,0.00,840,weatherlink.com 1.10,2013-03-06 18:56:00,
2013-03-06 13:11:00,61.7,30.0,30.32,WNW,295,0.0,-999.0,30,-99.99,,,0.00,819,weatherlink.com 1.10,2013-03-06 19:11:00,
2013-03-06 13:27:00,63.1,31.0,30.31,NW,309,2.0,-999.0,30,-99.99,,,0.00,780,weatherlink.com 1.10,2013-03-06 19:27:00,
2013-03-06 13:41:00,63.9,30.0,30.30,NE,34,0.0,-999.0,28,-99.99,,,0.00,791,weatherlink.com 1.10,2013-03-06 19:41:00,
2013-03-06 13:56:00,63.6,29.0,30.29,West,277,0.0,-999.0,27,-99.99,,,0.00,622,weatherlink.com 1.10,2013-03-06 19:56:00,
2013-03-06 14:11:00,64.1,27.0,30.29,WNW,295,0.0,-999.0,25,-99.99,,,0.00,691,weatherlink.com 1.10,2013-03-06 20:11:00,
2013-03-06 14:27:00,65.7,30.0,30.28,NW,323,0.0,-999.0,26,-99.99,,,0.00,712,weatherlink.com 1.10,2013-03-06 20:27:00,
2013-03-06 14:42:00,65.8,29.0,30.27,NE,44,5.0,-999.0,25,-99.99,,,0.00,703,weatherlink.com 1.10,2013-03-06 20:42:00,
2013-03-06 14:57:00,66.2,28.0,30.26,NNW,339,3.0,-999.0,24,-99.99,,,0.00,663,weatherlink.com 1.10,2013-03-06 20:57:00,
2013-03-06 15:12:00,66.2,28.0,30.26,NW,319,0.0,-999.0,24,-99.99,,,0.00,635,weatherlink.com 1.10,2013-03-06 21:12:00,
2013-03-06 15:27:00,66.2,27.0,30.26,NNW,333,3.0,-999.0,23,-99.99,,,0.00,591,weatherlink.com 1.10,2013-03-06 21:27:00,
2013-03-06 15:42:00,66.2,26.0,30.25,NNW,336,0.0,-999.0,22,-99.99,,,0.00,552,weatherlink.com 1.10,2013-03-06 21:42:00,
2013-03-06 15:57:00,67.4,29.0,30.24,WNW,289,2.0,-999.0,24,-99.99,,,0.00,501,weatherlink.com 1.10,2013-03-06 21:57:00,
2013-03-06 16:12:00,67.5,28.0,30.24,NW,319,0.0,-999.0,23,-99.99,,,0.00,432,weatherlink.com 1.10,2013-03-06 22:12:00,
2013-03-06 16:27:00,67.6,29.0,30.24,NW,325,0.0,-999.0,24,-99.99,,,0.00,204,weatherlink.com 1.10,2013-03-06 22:27:00,
2013-03-06 16:42:00,67.5,28.0,30.24,NW,325,0.0,-999.0,23,-99.99,,,0.00,434,weatherlink.com 1.10,2013-03-06 22:42:00,
2013-03-06 16:57:00,67.8,29.0,30.23,North,360,0.0,-999.0,23,-99.99,,,0.00,302,weatherlink.com 1.10,2013-03-06 22:57:00,
2013-03-06 17:12:00,66.9,28.0,30.23,NE,46,0.0,-999.0,23,-99.99,,,0.00,141,weatherlink.com 1.10,2013-03-06 23:12:00,
2013-03-06 17:27:00,66.0,26.0,30.23,NE,46,0.0,-999.0,22,-99.99,,,0.00,69,weatherlink.com 1.10,2013-03-06 23:27:00,
2013-03-06 17:42:00,65.0,27.0,30.22,NE,46,0.0,-999.0,24,-99.99,,,0.00,39,weatherlink.com 1.10,2013-03-06 23:42:00,
2013-03-06 17:57:00,63.8,28.0,30.22,NE,46,0.0,-999.0,26,-99.99,,,0.00,28,weatherlink.com 1.10,2013-03-06 23:57:00,
2013-03-06 18:12:00,62.4,29.0,30.22,NE,46,0.0,-999.0,28,-99.99,,,0.00,11,weatherlink.com 1.10,2013-03-07 00:12:00,
2013-03-06 18:27:00,60.8,30.0,30.22,NE,45,0.0,-999.0,31,-99.99,,,0.00,0,weatherlink.com 1.10,2013-03-07 00:27:00,
2013-03-06 18:42:00,59.0,33.0,30.23,South,182,0.0,-999.0,38,-99.99,,,0.00,0,weatherlink.com 1.10,2013-03-07 00:42:00,
2013-03-06 18:57:00,57.3,34.0,30.23,SSE,166,1.0,-999.0,41,-99.99,,,0.00,0,weatherlink.com 1.10,2013-03-07 00:57:00,
2013-03-06 19:12:00,56.2,35.0,30.24,South,180,1.0,-999.0,45,-99.99,,,0.00,0,weatherlink.com 1.10,2013-03-07 01:12:00,
2013-03-06 19:27:00,55.2,36.0,30.24,South,180,0.0,-999.0,49,-99.99,,,0.00,0,weatherlink.com 1.10,2013-03-07 01:27:00,
2013-03-06 19:42:00,54.6,37.0,30.23,SSE,153,0.0,-999.0,52,-99.99,,,0.00,0,weatherlink.com 1.10,2013-03-07 01:42:00,
2013-03-06 19:57:00,54.1,38.0,30.23,SSE,150,0.0,-999.0,54,-99.99,,,0.00,0,weatherlink.com 1.10,2013-03-07 01:57:00,
2013-03-06 20:12:00,53.6,38.0,30.24,SSE,150,0.0,-999.0,57,-99.99,,,0.00,0,weatherlink.com 1.10,2013-03-07 02:12:00,
2013-03-06 20:27:00,53.5,39.0,30.24,SSE,152,0.0,-999.0,59,-99.99,,,0.00,0,weatherlink.com 1.10,2013-03-07 02:27:00,
2013-03-06 20:42:00,53.1,39.0,30.24,SSE,152,0.0,-999.0,60,-99.99,,,0.00,0,weatherlink.com 1.10,2013-03-07 02:42:00,
2013-03-06 20:57:00,53.2,40.0,30.24,SSE,152,0.0,-999.0,61,-99.99,,,0.00,0,weatherlink.com 1.10,2013-03-07 02:57:00,
2013-03-06 21:12:00,52.7,40.0,30.25,SSE,152,0.0,-999.0,62,-99.99,,,0.00,0,weatherlink.com 1.10,2013-03-07 03:12:00,
2013-03-06 21:42:00,52.2,41.0,30.26,SSE,155,0.0,-999.0,65,-99.99,,,0.00,0,weatherlink.com 1.10,2013-03-07 03:42:00,
2013-03-06 21:57:00,52.0,41.0,30.25,SSE,155,0.0,-999.0,67,-99.99,,,0.00,0,weatherlink.com 1.10,2013-03-07 03:57:00,
2013-03-06 22:12:00,51.7,41.0,30.24,SSE,155,0.0,-999.0,67,-99.99,,,0.00,0,weatherlink.com 1.10,2013-03-07 04:12:00,
2013-03-06 22:27:00,51.4,42.0,30.23,SSE,155,0.0,-999.0,69,-99.99,,,0.00,0,weatherlink.com 1.10,2013-03-07 04:27:00,
2013-03-06 22:42:00,51.3,42.0,30.24,SSE,155,0.0,-999.0,70,-99.99,,,0.00,0,weatherlink.com 1.10,2013-03-07 04:42:00,
2013-03-06 22:57:00,51.0,42.0,30.24,SSE,155,0.0,-999.0,70,-99.99,,,0.00,0,weatherlink.com 1.10,2013-03-07 04:57:00,
2013-03-06 23:12:00,50.7,42.0,30.25,SSE,155,0.0,-999.0,71,-99.99,,,0.00,0,weatherlink.com 1.10,2013-03-07 05:12:00,
2013-03-06 23:27:00,50.4,42.0,30.25,SSE,157,0.0,-999.0,72,-99.99,,,0.00,0,weatherlink.com 1.10,2013-03-07 05:27:00,
2013-03-06 23:42:00,50.2,41.0,30.25,SSE,157,0.0,-999.0,72,-99.99,,,0.00,0,weatherlink.com 1.10,2013-03-07 05:42:00,
2013-03-06 23:57:00,50.0,41.0,30.24,SSE,157,0.0,-999.0,72,-99.99,,,0.00,0,weatherlink.com 1.10,2013-03-07 05:57:00,